createdAt,value
2022-12-03T00:03:26.120Z,100.00
2022-12-03T00:08:27.912Z,100.00
2022-12-03T00:13:29.604Z,100.00
2022-12-03T00:18:31.261Z,100.00
2022-12-03T00:23:37.104Z,100.00
2022-12-03T00:28:41.913Z,100.00
2022-12-03T00:33:43.579Z,100.00
2022-12-03T00:38:45.821Z,100.00
2022-12-03T00:43:47.863Z,100.00
2022-12-03T00:48:49.561Z,100.00
2022-12-03T00:53:51.253Z,100.00
2022-12-03T00:58:52.995Z,100.00
2022-12-03T01:03:54.663Z,99.81
2022-12-03T01:08:56.355Z,100.00
2022-12-03T01:13:58.044Z,99.78
2022-12-03T01:18:59.783Z,100.00
2022-12-03T01:24:01.492Z,100.00
2022-12-03T01:29:03.952Z,100.00
2022-12-03T01:34:06.170Z,100.00
2022-12-03T01:39:07.976Z,100.00
2022-12-03T01:44:23.278Z,100.00
2022-12-03T01:49:34.105Z,100.00
2022-12-03T01:54:43.146Z,100.00
2022-12-03T01:59:45.123Z,100.00
2022-12-03T02:04:47.071Z,100.00
2022-12-03T02:09:48.792Z,100.00
2022-12-03T02:14:51.373Z,100.00
2022-12-03T02:19:54.956Z,100.00
2022-12-03T02:24:59.657Z,100.00
2022-12-03T02:30:01.322Z,100.00
2022-12-03T02:35:03.057Z,100.00
2022-12-03T02:40:10.458Z,100.00
2022-12-03T02:45:28.432Z,100.00
2022-12-03T02:50:36.259Z,100.00
2022-12-03T02:55:38.339Z,100.00
2022-12-03T03:00:40.337Z,100.00
2022-12-03T03:05:42.630Z,100.00
2022-12-03T03:10:44.803Z,100.00
2022-12-03T03:15:48.187Z,100.00
2022-12-03T03:20:50.023Z,100.00
2022-12-03T03:26:08.571Z,100.00
2022-12-03T03:31:12.710Z,100.00
2022-12-03T03:36:15.491Z,100.00
2022-12-03T03:41:18.741Z,100.00
2022-12-03T03:46:21.949Z,100.00
2022-12-03T03:51:23.817Z,100.00
2022-12-03T03:56:25.766Z,100.00
2022-12-03T04:01:27.880Z,100.00
2022-12-03T04:06:29.608Z,100.00
2022-12-03T04:11:49.650Z,100.00
2022-12-03T04:16:51.409Z,100.00
2022-12-03T04:22:11.504Z,100.00
2022-12-03T04:27:31.827Z,100.00
2022-12-03T04:32:52.202Z,100.00
2022-12-03T04:37:53.923Z,99.77
2022-12-03T04:42:55.603Z,99.57
2022-12-03T04:47:57.356Z,100.00
2022-12-03T04:52:59.038Z,99.74
2022-12-03T04:58:00.870Z,100.00
2022-12-03T05:03:02.690Z,100.00
2022-12-03T05:08:04.640Z,100.00
2022-12-03T05:13:06.319Z,100.00
2022-12-03T05:18:08.081Z,99.65
2022-12-03T05:23:11.229Z,100.00
2022-12-03T05:28:12.914Z,99.41
2022-12-03T05:33:14.684Z,100.00
2022-12-03T05:38:16.532Z,99.66
2022-12-03T05:43:18.247Z,100.00
2022-12-03T05:48:20.044Z,100.00
2022-12-03T05:53:21.716Z,100.00
2022-12-03T05:58:23.541Z,99.92
2022-12-03T06:03:25.383Z,99.62
2022-12-03T06:08:27.151Z,100.00
2022-12-03T06:13:28.847Z,100.00
2022-12-03T06:18:30.542Z,100.00
2022-12-03T06:23:32.287Z,100.00
2022-12-03T06:28:33.966Z,100.00
2022-12-03T06:33:35.699Z,100.00
2022-12-03T06:38:37.378Z,100.00
2022-12-03T06:43:39.050Z,100.00
2022-12-03T06:48:40.735Z,100.00
2022-12-03T06:53:42.462Z,100.00
2022-12-03T06:58:44.168Z,100.00
2022-12-03T07:03:45.864Z,100.00
2022-12-03T07:08:47.580Z,100.00
2022-12-03T07:13:49.236Z,100.00
2022-12-03T07:18:50.976Z,100.00
2022-12-03T07:23:52.640Z,99.35
2022-12-03T07:28:54.393Z,100.00
2022-12-03T07:33:56.132Z,99.42
2022-12-03T07:38:57.805Z,99.42
2022-12-03T07:43:59.485Z,98.80
2022-12-03T07:49:01.199Z,99.62
2022-12-03T07:54:02.919Z,99.34
2022-12-03T07:59:04.577Z,98.81
2022-12-03T08:04:07.242Z,99.79
2022-12-03T08:09:13.139Z,98.19
2022-12-03T08:14:32.559Z,99.67
2022-12-03T08:19:34.226Z,98.52
2022-12-03T08:24:36.578Z,97.67
2022-12-03T08:29:38.253Z,97.79
2022-12-03T08:34:44.070Z,97.13
2022-12-03T08:39:50.738Z,96.16
2022-12-03T08:44:52.921Z,95.57
2022-12-03T08:49:58.264Z,97.95
2022-12-03T08:55:10.917Z,97.32
2022-12-03T09:00:24.378Z,98.09
2022-12-03T09:05:32.535Z,97.01
2022-12-03T09:10:34.302Z,96.51
2022-12-03T09:15:35.980Z,97.27
2022-12-03T09:20:37.718Z,97.65
2022-12-03T09:25:39.448Z,96.92
2022-12-03T09:30:41.134Z,96.84
2022-12-03T09:35:42.820Z,96.44
2022-12-03T09:40:44.530Z,97.00
2022-12-03T09:45:47.805Z,96.47
2022-12-03T09:50:50.708Z,97.39
2022-12-03T09:55:52.400Z,97.68
2022-12-03T10:00:54.879Z,97.96
2022-12-03T10:05:57.722Z,96.65
2022-12-03T10:10:59.531Z,96.54
2022-12-03T10:16:01.622Z,97.63
2022-12-03T10:21:03.461Z,97.13
2022-12-03T10:26:05.290Z,97.61
2022-12-03T10:31:09.716Z,96.93
2022-12-03T10:36:23.450Z,97.79
2022-12-03T10:41:28.523Z,97.81
2022-12-03T10:46:30.393Z,98.15
2022-12-03T10:51:32.226Z,96.99
2022-12-03T10:56:34.106Z,97.80
2022-12-03T11:01:35.889Z,96.98
2022-12-03T11:06:37.645Z,96.88
2022-12-03T11:11:40.387Z,96.17
2022-12-03T11:16:41.993Z,96.28
2022-12-03T11:22:05.491Z,95.63
2022-12-03T11:27:09.811Z,95.24
2022-12-03T11:32:11.567Z,94.85
2022-12-03T11:37:21.952Z,95.63
2022-12-03T11:42:26.167Z,95.93
2022-12-03T11:47:27.979Z,94.56
2022-12-03T11:52:33.069Z,94.32
2022-12-03T11:57:38.712Z,94.42
2022-12-03T12:02:40.461Z,94.07
2022-12-03T12:07:42.525Z,94.00
2022-12-03T12:12:54.347Z,94.17
2022-12-03T12:17:56.665Z,94.79
2022-12-03T12:23:27.913Z,95.73
2022-12-03T12:28:29.574Z,96.91
2022-12-03T12:33:33.239Z,97.41
2022-12-03T12:38:34.912Z,98.04
2022-12-03T12:43:38.848Z,98.68
2022-12-03T12:48:40.563Z,98.65
2022-12-03T12:53:45.087Z,98.19
2022-12-03T12:58:46.806Z,97.27
2022-12-03T13:03:51.539Z,98.23
2022-12-03T13:08:54.062Z,98.85
2022-12-03T13:13:56.115Z,99.31
2022-12-03T13:19:01.708Z,98.71
2022-12-03T13:24:25.934Z,100.00
2022-12-03T13:29:27.968Z,100.00
2022-12-03T13:34:33.678Z,100.00
2022-12-03T13:39:38.104Z,100.00
2022-12-03T13:44:45.479Z,100.00
2022-12-03T13:50:03.549Z,100.00
2022-12-03T13:55:07.227Z,100.00
2022-12-03T14:00:09.459Z,100.00
2022-12-03T14:05:14.466Z,100.00
2022-12-03T14:10:16.906Z,100.00
2022-12-03T14:15:18.572Z,100.00
2022-12-03T14:20:21.037Z,100.00
2022-12-03T14:25:22.720Z,100.00
2022-12-03T14:30:24.423Z,100.00
2022-12-03T14:35:26.236Z,100.00
2022-12-03T14:40:27.905Z,100.00
2022-12-03T14:45:30.084Z,100.00
2022-12-03T14:50:31.830Z,100.00
2022-12-03T14:55:33.498Z,100.00
2022-12-03T15:00:35.210Z,100.00
2022-12-03T15:05:36.859Z,100.00
2022-12-03T15:10:38.548Z,100.00
2022-12-03T15:15:40.214Z,100.00
2022-12-03T15:20:41.869Z,100.00
2022-12-03T15:25:43.678Z,100.00
2022-12-03T15:30:45.449Z,100.00
2022-12-03T15:35:47.407Z,100.00
2022-12-03T15:40:49.128Z,100.00
2022-12-03T15:45:50.821Z,100.00
2022-12-03T15:50:52.511Z,100.00
2022-12-03T15:55:54.207Z,100.00
2022-12-03T16:00:55.977Z,100.00
2022-12-03T16:05:57.653Z,100.00
2022-12-03T16:10:59.324Z,100.00
2022-12-03T16:16:01.168Z,100.00
2022-12-03T16:21:02.915Z,100.00
2022-12-03T16:26:04.659Z,100.00
2022-12-03T16:31:06.390Z,100.00
2022-12-03T16:36:08.522Z,100.00
2022-12-03T16:41:10.194Z,100.00
2022-12-03T16:46:14.773Z,100.00
2022-12-03T16:51:17.062Z,100.00
2022-12-03T16:56:19.115Z,100.00
2022-12-03T17:01:20.863Z,100.00
2022-12-03T17:06:22.592Z,100.00
2022-12-03T17:11:24.254Z,100.00
2022-12-03T17:16:26.024Z,100.00
2022-12-03T17:21:30.857Z,100.00
2022-12-03T17:26:35.399Z,100.00
2022-12-03T17:31:41.610Z,100.00
2022-12-03T17:36:44.027Z,100.00
2022-12-03T17:41:45.739Z,100.00
2022-12-03T17:46:47.507Z,100.00
2022-12-03T17:51:49.263Z,100.00
2022-12-03T17:56:50.981Z,100.00
2022-12-03T18:01:52.784Z,100.00
2022-12-03T18:07:00.514Z,100.00
2022-12-03T18:12:03.953Z,100.00
2022-12-03T18:17:05.930Z,100.00
2022-12-03T18:22:07.826Z,100.00
2022-12-03T18:27:09.602Z,100.00
2022-12-03T18:32:27.204Z,100.00
2022-12-03T18:37:32.032Z,100.00
2022-12-03T18:42:33.719Z,100.00
2022-12-03T18:47:35.526Z,100.00
2022-12-03T18:52:37.525Z,100.00
2022-12-03T18:57:39.244Z,100.00
2022-12-03T19:08:04.059Z,100.00
2022-12-03T19:13:05.824Z,100.00
2022-12-03T19:18:07.584Z,100.00
2022-12-03T19:23:10.145Z,100.00
2022-12-03T19:28:11.851Z,100.00
2022-12-03T19:33:17.917Z,100.00
2022-12-03T19:38:20.080Z,100.00
2022-12-03T19:43:21.765Z,100.00
2022-12-03T19:48:23.477Z,100.00
2022-12-03T19:53:26.979Z,100.00
2022-12-03T19:58:28.675Z,100.00
2022-12-03T20:03:30.351Z,100.00
2022-12-03T20:08:32.425Z,100.00
2022-12-03T20:13:36.528Z,100.00
2022-12-03T20:18:41.780Z,100.00
2022-12-03T20:23:43.779Z,100.00
2022-12-03T20:28:47.927Z,100.00
2022-12-03T20:33:52.353Z,100.00
2022-12-03T20:38:59.196Z,100.00
2022-12-03T20:44:00.920Z,100.00
2022-12-03T20:49:03.103Z,100.00
2022-12-03T20:54:04.867Z,100.00
2022-12-03T20:59:10.371Z,100.00
2022-12-03T21:04:16.217Z,100.00
2022-12-03T21:09:17.961Z,100.00
2022-12-03T21:14:19.651Z,100.00
2022-12-03T21:19:21.956Z,100.00
2022-12-03T21:24:23.721Z,100.00
2022-12-03T21:29:25.440Z,100.00
2022-12-03T21:34:31.316Z,100.00
2022-12-03T21:39:37.554Z,100.00
2022-12-03T21:44:39.229Z,100.00
2022-12-03T21:49:41.066Z,100.00
2022-12-03T21:54:42.732Z,100.00
2022-12-03T21:59:45.372Z,100.00
2022-12-03T22:04:50.407Z,100.00
2022-12-03T22:09:52.418Z,100.00
2022-12-03T22:14:57.109Z,100.00
2022-12-03T22:19:58.803Z,100.00
2022-12-03T22:25:00.520Z,100.00
2022-12-03T22:30:03.298Z,100.00
2022-12-03T22:35:05.423Z,100.00
2022-12-03T22:40:07.434Z,100.00
2022-12-03T22:45:09.471Z,100.00
2022-12-03T22:50:11.340Z,100.00
2022-12-03T22:55:13.014Z,100.00
2022-12-03T23:00:15.446Z,100.00
2022-12-03T23:05:17.116Z,100.00
2022-12-03T23:10:18.792Z,100.00
2022-12-03T23:15:20.488Z,100.00
2022-12-03T23:20:22.694Z,100.00
2022-12-03T23:25:24.452Z,100.00
2022-12-03T23:30:26.253Z,100.00
2022-12-03T23:35:27.912Z,100.00
2022-12-03T23:40:29.614Z,100.00
2022-12-03T23:45:33.186Z,100.00
2022-12-03T23:50:34.981Z,100.00
2022-12-03T23:55:39.887Z,100.00
